createdAt,value
2022-09-28T00:04:40.288Z,79.28
2022-09-28T00:09:45.864Z,79.40
2022-09-28T00:14:51.315Z,79.15
2022-09-28T00:19:58.204Z,79.18
2022-09-28T00:25:03.617Z,78.93
2022-09-28T00:30:10.138Z,79.00
2022-09-28T00:35:17.457Z,79.07
2022-09-28T00:40:26.694Z,78.89
2022-09-28T00:45:33.542Z,78.96
2022-09-28T00:50:41.080Z,79.10
2022-09-28T00:56:03.721Z,79.03
2022-09-28T01:01:09.522Z,78.96
2022-09-28T01:06:18.470Z,79.06
2022-09-28T01:11:24.838Z,78.74
2022-09-28T01:16:48.865Z,78.75
2022-09-28T01:22:07.589Z,78.93
2022-09-28T01:27:31.220Z,78.87
2022-09-28T01:32:39.652Z,79.01
2022-09-28T01:38:08.208Z,78.80
2022-09-28T01:43:20.645Z,78.90
2022-09-28T01:48:29.243Z,78.78
2022-09-28T01:53:43.676Z,79.18
2022-09-28T01:58:59.663Z,78.93
2022-09-28T02:04:10.877Z,78.88
2022-09-28T02:09:20.083Z,79.04
2022-09-28T02:14:27.434Z,78.89
2022-09-28T02:19:34.246Z,78.77
2022-09-28T02:24:45.693Z,78.81
2022-09-28T02:29:52.777Z,78.85
2022-09-28T02:34:59.349Z,78.62
2022-09-28T02:40:06.483Z,78.44
2022-09-28T02:45:34.786Z,78.58
2022-09-28T02:51:04.545Z,78.23
2022-09-28T02:56:12.965Z,78.35
2022-09-28T03:01:27.052Z,78.44
2022-09-28T03:06:44.650Z,78.30
2022-09-28T03:11:59.355Z,78.28
2022-09-28T03:17:05.088Z,78.56
2022-09-28T03:22:10.828Z,78.30
2022-09-28T03:27:16.540Z,78.15
2022-09-28T03:32:21.995Z,78.16
2022-09-28T03:37:29.183Z,78.13
2022-09-28T03:42:38.013Z,78.77
2022-09-28T03:47:47.771Z,78.48
2022-09-28T03:52:53.146Z,78.69
2022-09-28T03:57:58.677Z,78.74
2022-09-28T04:03:04.311Z,78.89
2022-09-28T04:08:09.910Z,78.92
2022-09-28T04:13:17.248Z,78.97
2022-09-28T04:18:25.247Z,78.78
2022-09-28T04:23:49.443Z,79.04
2022-09-28T04:29:12.824Z,78.78
2022-09-28T04:34:22.132Z,78.75
2022-09-28T04:39:27.858Z,78.84
2022-09-28T04:44:34.454Z,78.70
2022-09-28T04:49:41.592Z,78.62
2022-09-28T04:54:48.909Z,78.33
2022-09-28T04:59:54.552Z,78.23
2022-09-28T05:05:01.051Z,78.02
2022-09-28T05:10:14.067Z,78.23
2022-09-28T05:15:19.708Z,77.94
2022-09-28T05:20:26.178Z,77.90
2022-09-28T05:25:31.919Z,77.79
2022-09-28T05:30:41.903Z,77.78
2022-09-28T05:36:04.941Z,77.81
2022-09-28T05:41:10.586Z,77.83
2022-09-28T05:46:18.591Z,77.89
2022-09-28T05:51:25.649Z,77.71
2022-09-28T05:56:34.246Z,78.03
2022-09-28T06:01:41.368Z,78.19
2022-09-28T06:06:48.366Z,78.09
2022-09-28T06:11:54.684Z,78.07
2022-09-28T06:17:04.713Z,77.73
2022-09-28T06:22:10.679Z,78.21
2022-09-28T06:27:17.757Z,78.02
2022-09-28T06:32:23.267Z,77.71
2022-09-28T06:37:29.719Z,78.05
2022-09-28T06:42:35.853Z,77.52
2022-09-28T06:48:00.169Z,77.40
2022-09-28T06:53:13.636Z,77.31
2022-09-28T06:58:30.862Z,77.41
2022-09-28T07:03:37.375Z,77.80
2022-09-28T07:09:15.422Z,77.93
2022-09-28T07:14:40.953Z,77.76
2022-09-28T07:19:28.840Z,77.75
2022-09-28T07:24:34.307Z,77.83
2022-09-28T07:29:59.033Z,76.98
2022-09-28T07:35:21.219Z,77.61
2022-09-28T07:40:50.379Z,77.41
2022-09-28T07:45:56.439Z,77.65
2022-09-28T07:51:03.901Z,76.77
2022-09-28T07:56:15.354Z,75.46
2022-09-28T08:01:22.493Z,76.04
2022-09-28T08:06:30.683Z,75.92
2022-09-28T08:11:36.329Z,74.73
2022-09-28T08:16:46.079Z,74.28
2022-09-28T08:21:53.890Z,74.20
2022-09-28T08:27:00.620Z,74.10
2022-09-28T08:32:09.280Z,73.67
2022-09-28T08:37:16.362Z,69.72
2022-09-28T08:42:38.611Z,71.22
2022-09-28T08:48:31.038Z,71.45
2022-09-28T08:53:41.204Z,71.96
2022-09-28T08:58:51.941Z,71.04
2022-09-28T09:03:58.508Z,72.23
2022-09-28T09:09:26.400Z,71.18
2022-09-28T09:14:34.959Z,71.00
2022-09-28T09:19:53.030Z,70.30
2022-09-28T09:25:21.183Z,70.06
2022-09-28T09:30:31.719Z,69.36
2022-09-28T09:35:45.962Z,70.04
2022-09-28T09:41:26.887Z,68.71
2022-09-28T09:47:03.626Z,66.92
2022-09-28T09:52:28.391Z,67.10
2022-09-28T09:57:42.918Z,67.37
2022-09-28T10:03:00.272Z,66.51
2022-09-28T10:08:18.980Z,66.56
2022-09-28T10:13:24.722Z,66.27
2022-09-28T10:18:31.807Z,66.84
2022-09-28T10:24:04.516Z,67.04
2022-09-28T10:29:25.245Z,65.79
2022-09-28T10:34:31.666Z,64.36
2022-09-28T10:39:48.361Z,63.84
2022-09-28T10:44:57.327Z,63.87
2022-09-28T10:50:26.260Z,62.45
2022-09-28T10:55:36.414Z,62.97
2022-09-28T11:00:44.586Z,62.76
2022-09-28T11:06:02.878Z,63.34
2022-09-28T11:11:13.994Z,64.01
2022-09-28T11:16:26.559Z,64.48
2022-09-28T11:21:35.088Z,64.49
2022-09-28T11:26:45.077Z,64.49
2022-09-28T11:32:04.223Z,64.62
2022-09-28T11:37:27.889Z,64.15
2022-09-28T11:42:52.425Z,64.70
2022-09-28T11:48:04.258Z,64.06
2022-09-28T11:53:34.407Z,63.97
2022-09-28T11:58:43.327Z,63.54
2022-09-28T12:03:54.117Z,63.78
2022-09-28T12:09:04.247Z,63.27
2022-09-28T12:14:26.364Z,63.57
2022-09-28T12:19:43.941Z,63.36
2022-09-28T12:24:52.635Z,62.92
2022-09-28T12:30:22.334Z,62.84
2022-09-28T12:35:30.780Z,62.84
2022-09-28T12:40:54.261Z,62.89
2022-09-28T12:46:18.015Z,62.64
2022-09-28T12:51:45.137Z,63.04
2022-09-28T12:56:53.863Z,62.89
2022-09-28T13:02:15.010Z,63.53
2022-09-28T13:07:29.272Z,63.80
2022-09-28T13:12:53.167Z,63.96
2022-09-28T13:18:01.860Z,63.66
2022-09-28T13:23:25.131Z,63.21
2022-09-28T13:28:32.932Z,63.04
2022-09-28T13:33:41.873Z,63.70
2022-09-28T13:38:49.788Z,63.86
2022-09-28T13:44:00.928Z,63.76
2022-09-28T13:49:18.531Z,63.72
2022-09-28T13:54:58.866Z,64.21
2022-09-28T14:00:19.360Z,64.21
2022-09-28T14:05:44.265Z,64.26
2022-09-28T14:10:55.748Z,64.31
2022-09-28T14:16:20.707Z,64.23
2022-09-28T14:21:47.380Z,64.63
2022-09-28T14:27:07.813Z,64.62
2022-09-28T14:32:16.309Z,64.69
2022-09-28T14:37:55.143Z,64.30
2022-09-28T14:43:37.191Z,65.04
2022-09-28T14:49:04.093Z,65.61
2022-09-28T14:54:12.507Z,65.37
2022-09-28T14:59:39.176Z,64.62
2022-09-28T15:05:03.054Z,64.93
2022-09-28T15:10:11.713Z,64.37
2022-09-28T15:15:29.559Z,64.34
2022-09-28T15:20:41.700Z,64.93
2022-09-28T15:25:50.157Z,64.77
2022-09-28T15:31:03.710Z,65.48
2022-09-28T15:36:11.027Z,63.60
2022-09-28T15:41:16.501Z,63.79
2022-09-28T15:46:22.609Z,62.77
2022-09-28T15:51:29.525Z,62.49
2022-09-28T15:56:37.971Z,62.40
2022-09-28T16:01:52.407Z,62.34
2022-09-28T16:07:10.346Z,62.44
2022-09-28T16:12:16.343Z,62.55
2022-09-28T16:17:29.300Z,62.58
2022-09-28T16:22:34.866Z,62.60
2022-09-28T16:27:43.466Z,62.81
2022-09-28T16:33:03.746Z,63.13
2022-09-28T16:38:17.112Z,63.56
2022-09-28T16:43:31.062Z,63.84
2022-09-28T16:48:39.672Z,64.36
2022-09-28T16:54:04.050Z,64.70
2022-09-28T16:59:13.815Z,64.94
2022-09-28T17:04:18.996Z,65.55
2022-09-28T17:09:24.826Z,66.07
2022-09-28T17:14:31.873Z,66.51
2022-09-28T17:19:37.330Z,66.67
2022-09-28T17:24:42.713Z,66.87
2022-09-28T17:29:48.108Z,67.43
2022-09-28T17:35:06.599Z,67.46
2022-09-28T17:40:01.321Z,67.63
2022-09-28T17:45:07.636Z,67.65
2022-09-28T17:50:25.020Z,67.93
2022-09-28T17:55:33.214Z,67.92
2022-09-28T18:00:38.870Z,67.99
2022-09-28T18:05:46.673Z,68.27
2022-09-28T18:10:52.401Z,68.66
2022-09-28T18:15:58.355Z,68.76
2022-09-28T18:21:03.891Z,68.93
2022-09-28T18:26:14.015Z,69.08
2022-09-28T18:31:19.596Z,69.23
2022-09-28T18:36:30.935Z,69.62
2022-09-28T18:41:36.466Z,70.05
2022-09-28T18:46:43.820Z,70.52
2022-09-28T18:51:49.966Z,70.82
2022-09-28T18:56:58.448Z,71.02
2022-09-28T19:02:04.889Z,70.97
2022-09-28T19:07:10.794Z,71.12
2022-09-28T19:12:16.534Z,71.41
2022-09-28T19:17:21.913Z,71.30
2022-09-28T19:22:27.389Z,71.38
2022-09-28T19:27:33.045Z,71.10
2022-09-28T19:32:39.141Z,71.05
2022-09-28T19:37:46.182Z,71.29
2022-09-28T19:42:51.578Z,71.48
2022-09-28T19:47:59.492Z,71.57
2022-09-28T19:53:07.477Z,71.61
2022-09-28T19:58:12.922Z,71.47
2022-09-28T20:03:21.710Z,71.70
2022-09-28T20:08:27.655Z,71.81
2022-09-28T20:13:35.748Z,71.82
2022-09-28T20:18:44.283Z,72.07
2022-09-28T20:23:50.354Z,72.31
2022-09-28T20:28:55.871Z,72.32
2022-09-28T20:34:03.329Z,72.53
2022-09-28T20:39:09.563Z,72.33
2022-09-28T20:44:15.029Z,72.52
2022-09-28T20:49:20.738Z,72.64
2022-09-28T20:54:26.249Z,72.90
2022-09-28T20:59:31.658Z,73.10
2022-09-28T21:04:37.061Z,73.22
2022-09-28T21:09:42.520Z,73.50
2022-09-28T21:14:47.916Z,73.57
2022-09-28T21:19:53.346Z,73.79
2022-09-28T21:24:58.732Z,74.01
2022-09-28T21:30:04.328Z,73.95
2022-09-28T21:35:10.416Z,74.21
2022-09-28T21:40:15.882Z,74.52
2022-09-28T21:45:21.758Z,74.76
2022-09-28T21:50:28.066Z,74.98
2022-09-28T21:55:33.463Z,75.22
2022-09-28T22:00:40.554Z,75.43
2022-09-28T22:05:45.969Z,75.57
2022-09-28T22:11:11.785Z,75.67
2022-09-28T22:16:20.034Z,75.78
2022-09-28T22:21:32.074Z,75.80
2022-09-28T22:26:39.709Z,75.75
2022-09-28T22:31:45.107Z,75.89
2022-09-28T22:36:50.488Z,76.19
2022-09-28T22:41:55.879Z,76.38
2022-09-28T22:47:01.268Z,76.70
2022-09-28T22:52:06.995Z,76.86
2022-09-28T22:57:12.465Z,77.15
2022-09-28T23:02:17.849Z,77.16
2022-09-28T23:07:23.564Z,77.10
2022-09-28T23:12:30.614Z,77.16
2022-09-28T23:17:36.572Z,77.38
2022-09-28T23:22:43.592Z,77.66
2022-09-28T23:27:50.573Z,77.40
2022-09-28T23:32:55.961Z,77.68
2022-09-28T23:38:01.723Z,77.78
2022-09-28T23:43:07.588Z,78.02
2022-09-28T23:48:15.167Z,77.88
2022-09-28T23:53:20.774Z,77.76
2022-09-28T23:58:26.491Z,77.89
